sensor_id;sensor_type;location;lat;lon;timestamp;pressure;altitude;pressure_sealevel;temperature;humidity
34921;BME280;21128;50.016;20.002;2023-09-19T00:00:46;98234.95;;;18.46;79.15
34921;BME280;21128;50.016;20.002;2023-09-19T00:03:35;98228.87;;;18.56;79.07
34921;BME280;21128;50.016;20.002;2023-09-19T00:06:05;98228.05;;;18.63;78.90
34921;BME280;21128;50.016;20.002;2023-09-19T00:08:35;98223.92;;;18.70;78.82
34921;BME280;21128;50.016;20.002;2023-09-19T00:11:01;98223.95;;;18.75;79.26
34921;BME280;21128;50.016;20.002;2023-09-19T00:13:32;98220.31;;;18.72;79.62
34921;BME280;21128;50.016;20.002;2023-09-19T00:16:00;98220.81;;;18.64;80.11
34921;BME280;21128;50.016;20.002;2023-09-19T00:18:27;98222.98;;;18.52;80.57
34921;BME280;21128;50.016;20.002;2023-09-19T00:20:58;98220.10;;;18.40;81.11
34921;BME280;21128;50.016;20.002;2023-09-19T00:23:26;98225.46;;;18.31;81.64
34921;BME280;21128;50.016;20.002;2023-09-19T00:25:53;98222.17;;;18.25;82.47
34921;BME280;21128;50.016;20.002;2023-09-19T00:28:24;98222.73;;;18.25;82.37
34921;BME280;21128;50.016;20.002;2023-09-19T00:30:50;98220.15;;;18.34;82.37
34921;BME280;21128;50.016;20.002;2023-09-19T00:33:18;98218.95;;;18.44;82.02
34921;BME280;21128;50.016;20.002;2023-09-19T00:35:49;98220.42;;;18.51;82.02
34921;BME280;21128;50.016;20.002;2023-09-19T00:38:16;98219.86;;;18.56;82.07
34921;BME280;21128;50.016;20.002;2023-09-19T00:40:45;98223.70;;;18.57;82.33
34921;BME280;21128;50.016;20.002;2023-09-19T00:43:12;98219.26;;;18.55;82.53
34921;BME280;21128;50.016;20.002;2023-09-19T00:45:45;98222.86;;;18.53;82.84
34921;BME280;21128;50.016;20.002;2023-09-19T00:48:15;98219.76;;;18.53;82.44
34921;BME280;21128;50.016;20.002;2023-09-19T00:50:43;98217.77;;;18.67;81.89
34921;BME280;21128;50.016;20.002;2023-09-19T00:53:13;98216.70;;;18.87;81.31
34921;BME280;21128;50.016;20.002;2023-09-19T00:55:41;98218.06;;;19.05;80.48
34921;BME280;21128;50.016;20.002;2023-09-19T00:58:10;98218.70;;;19.20;79.62
34921;BME280;21128;50.016;20.002;2023-09-19T01:00:37;98219.59;;;19.32;78.96
34921;BME280;21128;50.016;20.002;2023-09-19T01:03:05;98222.80;;;19.42;78.44
34921;BME280;21128;50.016;20.002;2023-09-19T01:05:34;98225.79;;;19.49;78.37
34921;BME280;21128;50.016;20.002;2023-09-19T01:08:01;98227.34;;;19.51;78.64
34921;BME280;21128;50.016;20.002;2023-09-19T01:10:28;98224.46;;;19.46;78.94
34921;BME280;21128;50.016;20.002;2023-09-19T01:13:18;98223.61;;;19.36;80.07
34921;BME280;21128;50.016;20.002;2023-09-19T01:21:42;98207.97;;;18.78;84.48
34921;BME280;21128;50.016;20.002;2023-09-19T01:24:43;98201.89;;;18.62;85.64
34921;BME280;21128;50.016;20.002;2023-09-19T01:29:50;98199.23;;;18.40;87.90
34921;BME280;21128;50.016;20.002;2023-09-19T01:32:19;98197.23;;;18.35;88.91
34921;BME280;21128;50.016;20.002;2023-09-19T01:34:50;98191.14;;;18.31;89.98
34921;BME280;21128;50.016;20.002;2023-09-19T01:37:20;98188.17;;;18.25;90.73
34921;BME280;21128;50.016;20.002;2023-09-19T01:40:00;98183.06;;;18.19;91.54
34921;BME280;21128;50.016;20.002;2023-09-19T01:42:43;98182.58;;;18.14;92.41
34921;BME280;21128;50.016;20.002;2023-09-19T01:45:13;98184.80;;;18.10;93.48
34921;BME280;21128;50.016;20.002;2023-09-19T01:47:50;98182.75;;;18.04;94.58
34921;BME280;21128;50.016;20.002;2023-09-19T01:53:03;98183.91;;;17.92;96.55
34921;BME280;21128;50.016;20.002;2023-09-19T01:55:37;98179.03;;;17.88;97.71
34921;BME280;21128;50.016;20.002;2023-09-19T02:00:46;98173.77;;;17.78;100.00
34921;BME280;21128;50.016;20.002;2023-09-19T02:03:15;98177.14;;;17.71;100.00
34921;BME280;21128;50.016;20.002;2023-09-19T02:05:49;98175.80;;;17.64;100.00
34921;BME280;21128;50.016;20.002;2023-09-19T02:08:18;98171.40;;;17.58;100.00
34921;BME280;21128;50.016;20.002;2023-09-19T02:10:46;98171.96;;;17.54;100.00
34921;BME280;21128;50.016;20.002;2023-09-19T02:13:20;98167.95;;;17.50;100.00
34921;BME280;21128;50.016;20.002;2023-09-19T02:15:47;98162.98;;;17.47;100.00
34921;BME280;21128;50.016;20.002;2023-09-19T02:18:14;98160.29;;;17.44;100.00
34921;BME280;21128;50.016;20.002;2023-09-19T02:20:41;98156.58;;;17.43;100.00
34921;BME280;21128;50.016;20.002;2023-09-19T02:23:09;98157.45;;;17.42;100.00
34921;BME280;21128;50.016;20.002;2023-09-19T02:25:36;98155.81;;;17.41;100.00
34921;BME280;21128;50.016;20.002;2023-09-19T02:28:04;98155.91;;;17.40;100.00
34921;BME280;21128;50.016;20.002;2023-09-19T02:30:32;98151.09;;;17.39;100.00
34921;BME280;21128;50.016;20.002;2023-09-19T02:33:00;98151.83;;;17.37;100.00
34921;BME280;21128;50.016;20.002;2023-09-19T02:35:29;98149.54;;;17.36;100.00
34921;BME280;21128;50.016;20.002;2023-09-19T02:38:02;98148.27;;;17.35;100.00
34921;BME280;21128;50.016;20.002;2023-09-19T02:40:32;98149.17;;;17.35;100.00
34921;BME280;21128;50.016;20.002;2023-09-19T02:43:02;98144.77;;;17.35;100.00
34921;BME280;21128;50.016;20.002;2023-09-19T02:45:29;98143.91;;;17.35;100.00
34921;BME280;21128;50.016;20.002;2023-09-19T02:47:56;98140.40;;;17.34;100.00
34921;BME280;21128;50.016;20.002;2023-09-19T02:50:24;98137.98;;;17.37;100.00
34921;BME280;21128;50.016;20.002;2023-09-19T02:52:50;98135.41;;;17.40;100.00
34921;BME280;21128;50.016;20.002;2023-09-19T02:55:19;98130.30;;;17.44;100.00
34921;BME280;21128;50.016;20.002;2023-09-19T02:57:54;98127.69;;;17.47;100.00
34921;BME280;21128;50.016;20.002;2023-09-19T03:00:22;98122.59;;;17.51;100.00
34921;BME280;21128;50.016;20.002;2023-09-19T03:02:55;98122.34;;;17.54;100.00
34921;BME280;21128;50.016;20.002;2023-09-19T03:05:23;98120.36;;;17.59;100.00
34921;BME280;21128;50.016;20.002;2023-09-19T03:07:50;98112.77;;;17.62;100.00
34921;BME280;21128;50.016;20.002;2023-09-19T03:10:18;98111.60;;;17.66;100.00
34921;BME280;21128;50.016;20.002;2023-09-19T03:12:46;98108.09;;;17.68;100.00
34921;BME280;21128;50.016;20.002;2023-09-19T03:15:14;98103.93;;;17.70;100.00
34921;BME280;21128;50.016;20.002;2023-09-19T03:17:46;98103.41;;;17.74;100.00
34921;BME280;21128;50.016;20.002;2023-09-19T03:20:14;98097.31;;;17.78;100.00
34921;BME280;21128;50.016;20.002;2023-09-19T03:22:44;98088.98;;;17.79;100.00
34921;BME280;21128;50.016;20.002;2023-09-19T03:25:12;98087.49;;;17.79;100.00
34921;BME280;21128;50.016;20.002;2023-09-19T03:27:39;98085.86;;;17.81;100.00
34921;BME280;21128;50.016;20.002;2023-09-19T03:30:07;98081.70;;;17.83;100.00
34921;BME280;21128;50.016;20.002;2023-09-19T03:32:47;98079.94;;;17.83;100.00
34921;BME280;21128;50.016;20.002;2023-09-19T03:35:17;98076.70;;;17.82;100.00
34921;BME280;21128;50.016;20.002;2023-09-19T03:37:44;98071.96;;;17.79;100.00
34921;BME280;21128;50.016;20.002;2023-09-19T03:40:11;98073.00;;;17.77;100.00
34921;BME280;21128;50.016;20.002;2023-09-19T03:42:42;98074.46;;;17.78;100.00
34921;BME280;21128;50.016;20.002;2023-09-19T03:45:10;98070.40;;;17.80;100.00
34921;BME280;21128;50.016;20.002;2023-09-19T03:47:39;98067.86;;;17.82;100.00
34921;BME280;21128;50.016;20.002;2023-09-19T03:50:07;98071.10;;;17.81;100.00
34921;BME280;21128;50.016;20.002;2023-09-19T03:52:37;98068.66;;;17.77;100.00
34921;BME280;21128;50.016;20.002;2023-09-19T03:55:04;98070.59;;;17.75;100.00
34921;BME280;21128;50.016;20.002;2023-09-19T03:57:31;98068.65;;;17.73;100.00
34921;BME280;21128;50.016;20.002;2023-09-19T03:59:58;98063.46;;;17.72;100.00
34921;BME280;21128;50.016;20.002;2023-09-19T04:02:25;98066.13;;;17.72;100.00
34921;BME280;21128;50.016;20.002;2023-09-19T04:04:52;98063.31;;;17.75;100.00
34921;BME280;21128;50.016;20.002;2023-09-19T04:07:19;98063.59;;;17.78;100.00
34921;BME280;21128;50.016;20.002;2023-09-19T04:09:49;98062.65;;;17.77;100.00
34921;BME280;21128;50.016;20.002;2023-09-19T04:12:16;98058.23;;;17.77;100.00
34921;BME280;21128;50.016;20.002;2023-09-19T04:14:45;98056.36;;;17.74;100.00
34921;BME280;21128;50.016;20.002;2023-09-19T04:17:12;98050.30;;;17.71;100.00
34921;BME280;21128;50.016;20.002;2023-09-19T04:19:40;98055.16;;;17.69;100.00
34921;BME280;21128;50.016;20.002;2023-09-19T04:22:08;98054.34;;;17.67;100.00
34921;BME280;21128;50.016;20.002;2023-09-19T04:24:35;98054.71;;;17.66;100.00
34921;BME280;21128;50.016;20.002;2023-09-19T04:27:05;98054.92;;;17.67;100.00
34921;BME280;21128;50.016;20.002;2023-09-19T04:29:31;98054.71;;;17.67;100.00
34921;BME280;21128;50.016;20.002;2023-09-19T04:31:59;98053.19;;;17.65;100.00
34921;BME280;21128;50.016;20.002;2023-09-19T04:34:26;98050.83;;;17.66;100.00
34921;BME280;21128;50.016;20.002;2023-09-19T04:36:53;98056.65;;;17.64;100.00
34921;BME280;21128;50.016;20.002;2023-09-19T04:39:20;98058.02;;;17.62;100.00
34921;BME280;21128;50.016;20.002;2023-09-19T04:41:47;98053.85;;;17.61;100.00
34921;BME280;21128;50.016;20.002;2023-09-19T04:44:14;98054.75;;;17.62;100.00
34921;BME280;21128;50.016;20.002;2023-09-19T04:46:42;98050.65;;;17.64;100.00
34921;BME280;21128;50.016;20.002;2023-09-19T04:49:09;98051.52;;;17.63;100.00
34921;BME280;21128;50.016;20.002;2023-09-19T04:51:36;98054.27;;;17.61;100.00
34921;BME280;21128;50.016;20.002;2023-09-19T04:54:03;98059.28;;;17.62;100.00
34921;BME280;21128;50.016;20.002;2023-09-19T04:56:30;98060.66;;;17.64;100.00
34921;BME280;21128;50.016;20.002;2023-09-19T04:58:58;98065.38;;;17.66;100.00
34921;BME280;21128;50.016;20.002;2023-09-19T05:01:26;98063.52;;;17.64;100.00
34921;BME280;21128;50.016;20.002;2023-09-19T05:03:53;98068.48;;;17.62;100.00
34921;BME280;21128;50.016;20.002;2023-09-19T05:06:21;98074.61;;;17.62;100.00
34921;BME280;21128;50.016;20.002;2023-09-19T05:08:49;98079.19;;;17.62;100.00
34921;BME280;21128;50.016;20.002;2023-09-19T05:11:18;98085.58;;;17.59;100.00
34921;BME280;21128;50.016;20.002;2023-09-19T05:13:46;98090.30;;;17.54;100.00
34921;BME280;21128;50.016;20.002;2023-09-19T05:16:13;98090.48;;;17.50;100.00
34921;BME280;21128;50.016;20.002;2023-09-19T05:18:39;98092.79;;;17.48;100.00
34921;BME280;21128;50.016;20.002;2023-09-19T05:21:07;98089.15;;;17.47;100.00
34921;BME280;21128;50.016;20.002;2023-09-19T05:23:34;98086.21;;;17.48;100.00
34921;BME280;21128;50.016;20.002;2023-09-19T05:26:01;98089.00;;;17.50;100.00
34921;BME280;21128;50.016;20.002;2023-09-19T05:28:28;98090.55;;;17.52;100.00
34921;BME280;21128;50.016;20.002;2023-09-19T05:30:56;98092.95;;;17.53;100.00
34921;BME280;21128;50.016;20.002;2023-09-19T05:33:25;98086.42;;;17.54;100.00
34921;BME280;21128;50.016;20.002;2023-09-19T05:35:53;98085.61;;;17.56;100.00
34921;BME280;21128;50.016;20.002;2023-09-19T05:38:20;98087.61;;;17.60;100.00
34921;BME280;21128;50.016;20.002;2023-09-19T05:40:47;98091.92;;;17.63;100.00
34921;BME280;21128;50.016;20.002;2023-09-19T05:43:14;98090.67;;;17.67;100.00
34921;BME280;21128;50.016;20.002;2023-09-19T05:45:41;98093.27;;;17.73;100.00
34921;BME280;21128;50.016;20.002;2023-09-19T05:48:10;98098.63;;;17.77;100.00
34921;BME280;21128;50.016;20.002;2023-09-19T05:50:38;98103.41;;;17.76;100.00
34921;BME280;21128;50.016;20.002;2023-09-19T05:53:05;98108.07;;;17.72;100.00
34921;BME280;21128;50.016;20.002;2023-09-19T05:55:32;98113.34;;;17.71;100.00
34921;BME280;21128;50.016;20.002;2023-09-19T05:57:59;98108.09;;;17.68;100.00
34921;BME280;21128;50.016;20.002;2023-09-19T06:00:26;98111.60;;;17.65;100.00
34921;BME280;21128;50.016;20.002;2023-09-19T06:02:57;98113.10;;;17.65;100.00
34921;BME280;21128;50.016;20.002;2023-09-19T06:05:26;98112.66;;;17.66;100.00
34921;BME280;21128;50.016;20.002;2023-09-19T06:07:53;98115.20;;;17.68;100.00
34921;BME280;21128;50.016;20.002;2023-09-19T06:10:20;98118.04;;;17.72;100.00
34921;BME280;21128;50.016;20.002;2023-09-19T06:12:49;98118.80;;;17.76;100.00
34921;BME280;21128;50.016;20.002;2023-09-19T06:15:16;98121.61;;;17.76;100.00
34921;BME280;21128;50.016;20.002;2023-09-19T06:17:49;98118.42;;;17.76;100.00
34921;BME280;21128;50.016;20.002;2023-09-19T06:20:17;98119.23;;;17.77;100.00
34921;BME280;21128;50.016;20.002;2023-09-19T06:22:45;98118.17;;;17.77;100.00
34921;BME280;21128;50.016;20.002;2023-09-19T06:25:13;98120.25;;;17.78;100.00
34921;BME280;21128;50.016;20.002;2023-09-19T06:27:47;98123.02;;;17.79;100.00
34921;BME280;21128;50.016;20.002;2023-09-19T06:30:15;98119.35;;;17.78;100.00
34921;BME280;21128;50.016;20.002;2023-09-19T06:32:41;98123.85;;;17.78;100.00
34921;BME280;21128;50.016;20.002;2023-09-19T06:35:13;98125.00;;;17.77;100.00
34921;BME280;21128;50.016;20.002;2023-09-19T06:37:41;98123.64;;;17.78;100.00
34921;BME280;21128;50.016;20.002;2023-09-19T06:42:41;98123.77;;;17.76;100.00
34921;BME280;21128;50.016;20.002;2023-09-19T06:45:09;98123.94;;;17.75;100.00
34921;BME280;21128;50.016;20.002;2023-09-19T06:47:38;98133.63;;;17.76;100.00
34921;BME280;21128;50.016;20.002;2023-09-19T06:50:06;98130.79;;;17.79;100.00
34921;BME280;21128;50.016;20.002;2023-09-19T06:52:35;98137.16;;;17.80;100.00
34921;BME280;21128;50.016;20.002;2023-09-19T06:55:02;98142.80;;;17.81;100.00
34921;BME280;21128;50.016;20.002;2023-09-19T06:57:29;98143.10;;;17.80;100.00
34921;BME280;21128;50.016;20.002;2023-09-19T06:59:57;98143.92;;;17.78;100.00
34921;BME280;21128;50.016;20.002;2023-09-19T07:02:24;98145.57;;;17.76;100.00
34921;BME280;21128;50.016;20.002;2023-09-19T07:04:50;98146.34;;;17.75;100.00
34921;BME280;21128;50.016;20.002;2023-09-19T07:07:17;98149.98;;;17.76;100.00
34921;BME280;21128;50.016;20.002;2023-09-19T07:09:44;98150.10;;;17.77;100.00
34921;BME280;21128;50.016;20.002;2023-09-19T07:12:11;98147.73;;;17.76;100.00
34921;BME280;21128;50.016;20.002;2023-09-19T07:14:38;98149.70;;;17.75;100.00
34921;BME280;21128;50.016;20.002;2023-09-19T07:17:05;98147.86;;;17.76;100.00
34921;BME280;21128;50.016;20.002;2023-09-19T07:19:32;98147.68;;;17.77;100.00
34921;BME280;21128;50.016;20.002;2023-09-19T07:21:58;98149.23;;;17.79;100.00
34921;BME280;21128;50.016;20.002;2023-09-19T07:24:29;98148.45;;;17.81;100.00
34921;BME280;21128;50.016;20.002;2023-09-19T07:26:56;98151.60;;;17.81;100.00
34921;BME280;21128;50.016;20.002;2023-09-19T07:29:23;98157.86;;;17.79;100.00
34921;BME280;21128;50.016;20.002;2023-09-19T07:31:49;98161.63;;;17.77;100.00
34921;BME280;21128;50.016;20.002;2023-09-19T07:34:16;98163.22;;;17.79;100.00
34921;BME280;21128;50.016;20.002;2023-09-19T07:36:43;98163.54;;;17.80;100.00
34921;BME280;21128;50.016;20.002;2023-09-19T07:39:10;98166.08;;;17.80;100.00
34921;BME280;21128;50.016;20.002;2023-09-19T07:41:37;98167.14;;;17.76;100.00
34921;BME280;21128;50.016;20.002;2023-09-19T07:44:04;98166.92;;;17.73;100.00
34921;BME280;21128;50.016;20.002;2023-09-19T07:46:31;98173.02;;;17.71;100.00
34921;BME280;21128;50.016;20.002;2023-09-19T07:48:58;98171.48;;;17.68;100.00
34921;BME280;21128;50.016;20.002;2023-09-19T07:51:24;98173.33;;;17.66;100.00
34921;BME280;21128;50.016;20.002;2023-09-19T07:53:51;98173.48;;;17.66;100.00
34921;BME280;21128;50.016;20.002;2023-09-19T07:56:19;98178.52;;;17.66;100.00
34921;BME280;21128;50.016;20.002;2023-09-19T07:58:47;98174.33;;;17.65;100.00
34921;BME280;21128;50.016;20.002;2023-09-19T08:01:14;98179.44;;;17.64;100.00
34921;BME280;21128;50.016;20.002;2023-09-19T08:03:42;98179.44;;;17.64;100.00
34921;BME280;21128;50.016;20.002;2023-09-19T08:06:10;98178.13;;;17.62;100.00
34921;BME280;21128;50.016;20.002;2023-09-19T08:08:37;98179.55;;;17.59;100.00
34921;BME280;21128;50.016;20.002;2023-09-19T08:11:05;98179.05;;;17.54;100.00
34921;BME280;21128;50.016;20.002;2023-09-19T08:13:39;98184.02;;;17.51;100.00
34921;BME280;21128;50.016;20.002;2023-09-19T08:16:15;98184.45;;;17.48;100.00
34921;BME280;21128;50.016;20.002;2023-09-19T08:18:47;98187.43;;;17.43;100.00
34921;BME280;21128;50.016;20.002;2023-09-19T08:21:14;98185.19;;;17.41;100.00
34921;BME280;21128;50.016;20.002;2023-09-19T08:23:42;98197.95;;;17.39;100.00
34921;BME280;21128;50.016;20.002;2023-09-19T08:26:10;98190.68;;;17.36;100.00
34921;BME280;21128;50.016;20.002;2023-09-19T08:28:37;98203.45;;;17.33;100.00
34921;BME280;21128;50.016;20.002;2023-09-19T08:31:08;98202.95;;;17.30;100.00
34921;BME280;21128;50.016;20.002;2023-09-19T08:33:36;98208.59;;;17.26;100.00
34921;BME280;21128;50.016;20.002;2023-09-19T08:36:04;98212.73;;;17.21;100.00
34921;BME280;21128;50.016;20.002;2023-09-19T08:38:34;98217.88;;;17.19;100.00
34921;BME280;21128;50.016;20.002;2023-09-19T08:41:07;98232.54;;;17.16;100.00
34921;BME280;21128;50.016;20.002;2023-09-19T08:43:35;98238.27;;;17.14;100.00
34921;BME280;21128;50.016;20.002;2023-09-19T08:48:32;98244.48;;;17.12;100.00
34921;BME280;21128;50.016;20.002;2023-09-19T08:51:10;98247.25;;;17.12;100.00
34921;BME280;21128;50.016;20.002;2023-09-19T08:53:51;98250.23;;;17.10;100.00
34921;BME280;21128;50.016;20.002;2023-09-19T08:56:22;98257.51;;;17.09;100.00
34921;BME280;21128;50.016;20.002;2023-09-19T08:59:00;98260.55;;;17.07;100.00
34921;BME280;21128;50.016;20.002;2023-09-19T09:01:31;98264.77;;;17.06;100.00
34921;BME280;21128;50.016;20.002;2023-09-19T09:03:59;98270.45;;;17.05;100.00
34921;BME280;21128;50.016;20.002;2023-09-19T09:06:28;98271.88;;;17.05;100.00
34921;BME280;21128;50.016;20.002;2023-09-19T09:08:56;98276.86;;;17.04;100.00
34921;BME280;21128;50.016;20.002;2023-09-19T09:11:23;98278.30;;;17.06;100.00
34921;BME280;21128;50.016;20.002;2023-09-19T09:13:51;98277.35;;;17.07;100.00
34921;BME280;21128;50.016;20.002;2023-09-19T09:16:18;98280.20;;;17.07;100.00
34921;BME280;21128;50.016;20.002;2023-09-19T09:18:46;98284.58;;;17.08;100.00
34921;BME280;21128;50.016;20.002;2023-09-19T09:21:19;98292.61;;;17.07;100.00
34921;BME280;21128;50.016;20.002;2023-09-19T09:23:49;98291.79;;;17.07;100.00
34921;BME280;21128;50.016;20.002;2023-09-19T09:29:05;98296.90;;;17.07;100.00
34921;BME280;21128;50.016;20.002;2023-09-19T09:31:32;98303.93;;;17.09;100.00
34921;BME280;21128;50.016;20.002;2023-09-19T09:33:59;98305.67;;;17.07;100.00
34921;BME280;21128;50.016;20.002;2023-09-19T09:36:39;98307.91;;;17.06;100.00
34921;BME280;21128;50.016;20.002;2023-09-19T09:39:10;98314.48;;;17.06;100.00
34921;BME280;21128;50.016;20.002;2023-09-19T09:41:45;98320.42;;;17.07;100.00
34921;BME280;21128;50.016;20.002;2023-09-19T09:44:14;98320.64;;;17.06;100.00
34921;BME280;21128;50.016;20.002;2023-09-19T09:46:43;98329.35;;;17.06;100.00
34921;BME280;21128;50.016;20.002;2023-09-19T09:49:26;98335.82;;;17.07;100.00
34921;BME280;21128;50.016;20.002;2023-09-19T09:52:04;98341.48;;;17.07;100.00
34921;BME280;21128;50.016;20.002;2023-09-19T09:54:37;98343.99;;;17.05;100.00
34921;BME280;21128;50.016;20.002;2023-09-19T09:57:06;98351.95;;;17.04;100.00
34921;BME280;21128;50.016;20.002;2023-09-19T09:59:54;98352.86;;;17.05;100.00
34921;BME280;21128;50.016;20.002;2023-09-19T10:02:29;98361.52;;;17.04;100.00
34921;BME280;21128;50.016;20.002;2023-09-19T10:04:59;98367.79;;;17.03;100.00
34921;BME280;21128;50.016;20.002;2023-09-19T10:07:41;98371.22;;;17.01;100.00
34921;BME280;21128;50.016;20.002;2023-09-19T10:10:30;98374.24;;;17.00;100.00
34921;BME280;21128;50.016;20.002;2023-09-19T10:13:06;98376.65;;;17.00;100.00
34921;BME280;21128;50.016;20.002;2023-09-19T10:15:36;98382.16;;;17.00;100.00
34921;BME280;21128;50.016;20.002;2023-09-19T10:18:07;98380.61;;;17.00;100.00
34921;BME280;21128;50.016;20.002;2023-09-19T10:20:37;98380.16;;;17.02;100.00
34921;BME280;21128;50.016;20.002;2023-09-19T10:23:09;98386.59;;;17.05;100.00
34921;BME280;21128;50.016;20.002;2023-09-19T10:25:44;98385.98;;;17.09;100.00
34921;BME280;21128;50.016;20.002;2023-09-19T10:28:15;98389.70;;;17.10;100.00
34921;BME280;21128;50.016;20.002;2023-09-19T10:30:44;98391.50;;;17.11;100.00
34921;BME280;21128;50.016;20.002;2023-09-19T10:33:16;98388.17;;;17.15;100.00
34921;BME280;21128;50.016;20.002;2023-09-19T10:35:44;98391.91;;;17.20;100.00
34921;BME280;21128;50.016;20.002;2023-09-19T10:38:17;98388.79;;;17.23;100.00
34921;BME280;21128;50.016;20.002;2023-09-19T10:40:49;98392.58;;;17.28;100.00
34921;BME280;21128;50.016;20.002;2023-09-19T10:43:18;98388.12;;;17.34;100.00
34921;BME280;21128;50.016;20.002;2023-09-19T10:45:47;98397.16;;;17.43;100.00
34921;BME280;21128;50.016;20.002;2023-09-19T10:48:16;98395.45;;;17.49;100.00
34921;BME280;21128;50.016;20.002;2023-09-19T10:50:53;98395.16;;;17.52;100.00
34921;BME280;21128;50.016;20.002;2023-09-19T10:53:29;98405.75;;;17.56;100.00
34921;BME280;21128;50.016;20.002;2023-09-19T10:55:59;98408.34;;;17.57;100.00
34921;BME280;21128;50.016;20.002;2023-09-19T10:58:31;98406.44;;;17.58;100.00
34921;BME280;21128;50.016;20.002;2023-09-19T11:01:04;98410.56;;;17.60;100.00
34921;BME280;21128;50.016;20.002;2023-09-19T11:03:39;98412.41;;;17.60;100.00
34921;BME280;21128;50.016;20.002;2023-09-19T11:06:14;98417.06;;;17.61;100.00
34921;BME280;21128;50.016;20.002;2023-09-19T11:08:57;98419.67;;;17.61;100.00
34921;BME280;21128;50.016;20.002;2023-09-19T11:11:46;98423.23;;;17.60;100.00
34921;BME280;21128;50.016;20.002;2023-09-19T11:30:37;98430.76;;;17.59;100.00
34921;BME280;21128;50.016;20.002;2023-09-19T11:46:27;98442.93;;;17.51;100.00
34921;BME280;21128;50.016;20.002;2023-09-19T11:48:54;98445.05;;;17.50;100.00
34921;BME280;21128;50.016;20.002;2023-09-19T11:51:24;98449.47;;;17.47;100.00
34921;BME280;21128;50.016;20.002;2023-09-19T11:53:56;98447.63;;;17.45;100.00
34921;BME280;21128;50.016;20.002;2023-09-19T11:56:27;98450.07;;;17.42;100.00
34921;BME280;21128;50.016;20.002;2023-09-19T11:58:55;98449.58;;;17.38;100.00
34921;BME280;21128;50.016;20.002;2023-09-19T12:01:30;98449.17;;;17.37;100.00
34921;BME280;21128;50.016;20.002;2023-09-19T12:04:00;98445.41;;;17.36;100.00
34921;BME280;21128;50.016;20.002;2023-09-19T12:06:28;98445.73;;;17.36;100.00
34921;BME280;21128;50.016;20.002;2023-09-19T12:09:13;98447.41;;;17.35;100.00
34921;BME280;21128;50.016;20.002;2023-09-19T12:11:43;98450.95;;;17.34;100.00
34921;BME280;21128;50.016;20.002;2023-09-19T12:14:22;98452.82;;;17.32;100.00
34921;BME280;21128;50.016;20.002;2023-09-19T12:16:57;98453.73;;;17.30;100.00
34921;BME280;21128;50.016;20.002;2023-09-19T12:19:27;98459.09;;;17.30;100.00
34921;BME280;21128;50.016;20.002;2023-09-19T12:24:26;98462.59;;;17.25;100.00
34921;BME280;21128;50.016;20.002;2023-09-19T12:27:06;98458.41;;;17.24;100.00
34921;BME280;21128;50.016;20.002;2023-09-19T12:29:46;98462.58;;;17.25;100.00
34921;BME280;21128;50.016;20.002;2023-09-19T12:32:17;98461.76;;;17.24;100.00
34921;BME280;21128;50.016;20.002;2023-09-19T12:34:52;98462.98;;;17.24;100.00
34921;BME280;21128;50.016;20.002;2023-09-19T12:37:19;98459.89;;;17.27;100.00
34921;BME280;21128;50.016;20.002;2023-09-19T12:40:03;98459.40;;;17.27;100.00
34921;BME280;21128;50.016;20.002;2023-09-19T12:42:41;98460.23;;;17.30;100.00
34921;BME280;21128;50.016;20.002;2023-09-19T12:45:09;98461.98;;;17.32;100.00
34921;BME280;21128;50.016;20.002;2023-09-19T12:47:36;98460.64;;;17.33;100.00
34921;BME280;21128;50.016;20.002;2023-09-19T12:50:10;98460.48;;;17.37;100.00
34921;BME280;21128;50.016;20.002;2023-09-19T12:52:49;98460.66;;;17.38;100.00
34921;BME280;21128;50.016;20.002;2023-09-19T12:55:31;98460.03;;;17.40;100.00
34921;BME280;21128;50.016;20.002;2023-09-19T12:58:14;98462.98;;;17.42;100.00
34921;BME280;21128;50.016;20.002;2023-09-19T13:00:46;98462.09;;;17.45;100.00
34921;BME280;21128;50.016;20.002;2023-09-19T13:03:19;98459.08;;;17.47;100.00
34921;BME280;21128;50.016;20.002;2023-09-19T13:05:57;98466.77;;;17.52;100.00
34921;BME280;21128;50.016;20.002;2023-09-19T13:08:34;98467.73;;;17.55;100.00
34921;BME280;21128;50.016;20.002;2023-09-19T13:11:06;98472.31;;;17.58;100.00
34921;BME280;21128;50.016;20.002;2023-09-19T13:13:33;98474.20;;;17.60;100.00
34921;BME280;21128;50.016;20.002;2023-09-19T13:16:03;98474.57;;;17.62;100.00
34921;BME280;21128;50.016;20.002;2023-09-19T13:18:51;98472.49;;;17.65;100.00
34921;BME280;21128;50.016;20.002;2023-09-19T13:21:31;98474.14;;;17.66;100.00
34921;BME280;21128;50.016;20.002;2023-09-19T13:24:24;98479.03;;;17.68;100.00
34921;BME280;21128;50.016;20.002;2023-09-19T13:26:54;98477.98;;;17.69;100.00
34921;BME280;21128;50.016;20.002;2023-09-19T13:29:22;98482.79;;;17.70;100.00
34921;BME280;21128;50.016;20.002;2023-09-19T13:31:52;98489.09;;;17.71;100.00
34921;BME280;21128;50.016;20.002;2023-09-19T13:34:19;98491.34;;;17.73;100.00
34921;BME280;21128;50.016;20.002;2023-09-19T13:36:47;98492.08;;;17.73;100.00
34921;BME280;21128;50.016;20.002;2023-09-19T13:39:17;98492.13;;;17.74;100.00
34921;BME280;21128;50.016;20.002;2023-09-19T13:41:45;98494.35;;;17.76;100.00
34921;BME280;21128;50.016;20.002;2023-09-19T13:44:13;98496.41;;;17.81;100.00
34921;BME280;21128;50.016;20.002;2023-09-19T13:46:40;98498.35;;;17.82;100.00
34921;BME280;21128;50.016;20.002;2023-09-19T13:49:12;98496.89;;;17.84;100.00